sensor_id;sensor_type;location;lat;lon;timestamp;P1;durP1;ratioP1;P2;durP2;ratioP2
57822;SDS011;43650;48.064;20.624;2022-11-15T00:00:39;30.40;;;14.10;;
57822;SDS011;43650;48.064;20.624;2022-11-15T00:01:40;31.80;;;15.40;;
57822;SDS011;43650;48.064;20.624;2022-11-15T00:02:40;26.73;;;13.27;;
57822;SDS011;43650;48.064;20.624;2022-11-15T00:03:41;22.67;;;11.50;;
57822;SDS011;43650;48.064;20.624;2022-11-15T00:04:41;20.50;;;10.40;;
57822;SDS011;43650;48.064;20.624;2022-11-15T00:05:41;19.40;;;9.70;;
57822;SDS011;43650;48.064;20.624;2022-11-15T00:06:42;13.30;;;8.00;;
57822;SDS011;43650;48.064;20.624;2022-11-15T00:07:42;12.57;;;7.90;;
57822;SDS011;43650;48.064;20.624;2022-11-15T00:08:43;14.33;;;8.60;;
57822;SDS011;43650;48.064;20.624;2022-11-15T00:09:43;17.17;;;8.03;;
57822;SDS011;43650;48.064;20.624;2022-11-15T00:10:53;11.67;;;7.13;;
57822;SDS011;43650;48.064;20.624;2022-11-15T00:11:57;14.18;;;7.43;;
57822;SDS011;43650;48.064;20.624;2022-11-15T00:12:57;11.27;;;5.57;;
57822;SDS011;43650;48.064;20.624;2022-11-15T00:13:58;9.13;;;5.47;;
57822;SDS011;43650;48.064;20.624;2022-11-15T00:14:58;9.53;;;4.83;;
57822;SDS011;43650;48.064;20.624;2022-11-15T00:15:59;12.97;;;5.63;;
57822;SDS011;43650;48.064;20.624;2022-11-15T00:17:00;18.23;;;8.02;;
57822;SDS011;43650;48.064;20.624;2022-11-15T00:18:00;16.27;;;7.97;;
57822;SDS011;43650;48.064;20.624;2022-11-15T00:19:01;16.70;;;7.83;;
57822;SDS011;43650;48.064;20.624;2022-11-15T00:20:02;19.02;;;7.12;;
57822;SDS011;43650;48.064;20.624;2022-11-15T00:21:04;11.80;;;5.93;;
57822;SDS011;43650;48.064;20.624;2022-11-15T00:22:06;14.07;;;5.50;;
57822;SDS011;43650;48.064;20.624;2022-11-15T00:23:06;12.30;;;5.87;;
57822;SDS011;43650;48.064;20.624;2022-11-15T00:24:07;12.32;;;5.45;;
57822;SDS011;43650;48.064;20.624;2022-11-15T00:25:08;6.85;;;4.15;;
57822;SDS011;43650;48.064;20.624;2022-11-15T00:26:11;9.27;;;5.17;;
57822;SDS011;43650;48.064;20.624;2022-11-15T00:27:12;11.75;;;5.70;;
57822;SDS011;43650;48.064;20.624;2022-11-15T00:28:13;17.52;;;6.85;;
57822;SDS011;43650;48.064;20.624;2022-11-15T00:29:13;12.77;;;6.37;;
57822;SDS011;43650;48.064;20.624;2022-11-15T00:30:14;21.97;;;10.40;;
57822;SDS011;43650;48.064;20.624;2022-11-15T00:31:14;20.80;;;10.17;;
57822;SDS011;43650;48.064;20.624;2022-11-15T00:32:14;17.70;;;8.83;;
57822;SDS011;43650;48.064;20.624;2022-11-15T00:33:15;16.40;;;8.50;;
57822;SDS011;43650;48.064;20.624;2022-11-15T00:34:15;16.17;;;8.60;;
57822;SDS011;43650;48.064;20.624;2022-11-15T00:35:16;23.27;;;9.90;;
57822;SDS011;43650;48.064;20.624;2022-11-15T00:36:16;25.02;;;11.82;;
57822;SDS011;43650;48.064;20.624;2022-11-15T00:37:17;25.77;;;12.33;;
57822;SDS011;43650;48.064;20.624;2022-11-15T00:38:17;27.07;;;12.93;;
57822;SDS011;43650;48.064;20.624;2022-11-15T00:39:17;25.50;;;12.37;;
57822;SDS011;43650;48.064;20.624;2022-11-15T00:40:18;27.53;;;13.13;;
57822;SDS011;43650;48.064;20.624;2022-11-15T00:41:18;24.33;;;12.30;;
57822;SDS011;43650;48.064;20.624;2022-11-15T00:42:19;31.53;;;13.70;;
57822;SDS011;43650;48.064;20.624;2022-11-15T00:43:19;23.73;;;10.63;;
57822;SDS011;43650;48.064;20.624;2022-11-15T00:44:19;19.77;;;9.33;;
57822;SDS011;43650;48.064;20.624;2022-11-15T00:45:20;25.10;;;11.07;;
57822;SDS011;43650;48.064;20.624;2022-11-15T00:46:20;20.43;;;9.30;;
57822;SDS011;43650;48.064;20.624;2022-11-15T00:47:21;27.07;;;9.33;;
57822;SDS011;43650;48.064;20.624;2022-11-15T00:48:21;24.83;;;9.80;;
57822;SDS011;43650;48.064;20.624;2022-11-15T00:49:21;21.40;;;10.13;;
57822;SDS011;43650;48.064;20.624;2022-11-15T00:50:22;17.57;;;8.03;;
57822;SDS011;43650;48.064;20.624;2022-11-15T00:51:22;20.07;;;9.07;;
57822;SDS011;43650;48.064;20.624;2022-11-15T00:52:23;28.80;;;12.50;;
57822;SDS011;43650;48.064;20.624;2022-11-15T00:53:23;23.50;;;11.00;;
57822;SDS011;43650;48.064;20.624;2022-11-15T00:54:23;20.53;;;11.93;;
57822;SDS011;43650;48.064;20.624;2022-11-15T00:55:24;28.70;;;13.73;;
57822;SDS011;43650;48.064;20.624;2022-11-15T00:56:24;24.30;;;13.53;;
57822;SDS011;43650;48.064;20.624;2022-11-15T00:57:25;22.83;;;12.33;;
57822;SDS011;43650;48.064;20.624;2022-11-15T00:58:25;19.43;;;10.90;;
57822;SDS011;43650;48.064;20.624;2022-11-15T00:59:25;19.90;;;10.73;;
57822;SDS011;43650;48.064;20.624;2022-11-15T01:00:26;12.47;;;7.67;;
57822;SDS011;43650;48.064;20.624;2022-11-15T01:01:27;10.25;;;6.57;;
57822;SDS011;43650;48.064;20.624;2022-11-15T01:02:27;9.67;;;6.07;;
57822;SDS011;43650;48.064;20.624;2022-11-15T01:03:28;13.88;;;6.65;;
57822;SDS011;43650;48.064;20.624;2022-11-15T01:04:28;13.60;;;7.53;;
57822;SDS011;43650;48.064;20.624;2022-11-15T01:05:28;11.60;;;6.70;;
57822;SDS011;43650;48.064;20.624;2022-11-15T01:06:29;11.40;;;6.07;;
57822;SDS011;43650;48.064;20.624;2022-11-15T01:07:29;9.27;;;5.70;;
57822;SDS011;43650;48.064;20.624;2022-11-15T01:08:30;7.17;;;4.40;;
57822;SDS011;43650;48.064;20.624;2022-11-15T01:09:30;8.55;;;4.25;;
57822;SDS011;43650;48.064;20.624;2022-11-15T01:10:31;7.53;;;5.10;;
57822;SDS011;43650;48.064;20.624;2022-11-15T01:11:31;8.33;;;4.47;;
57822;SDS011;43650;48.064;20.624;2022-11-15T01:12:32;8.13;;;4.10;;
57822;SDS011;43650;48.064;20.624;2022-11-15T01:13:33;14.63;;;7.77;;
57822;SDS011;43650;48.064;20.624;2022-11-15T01:15:34;17.50;;;9.20;;
57822;SDS011;43650;48.064;20.624;2022-11-15T01:16:38;12.52;;;6.97;;
57822;SDS011;43650;48.064;20.624;2022-11-15T01:17:39;15.10;;;6.07;;
57822;SDS011;43650;48.064;20.624;2022-11-15T01:18:39;14.67;;;5.60;;
57822;SDS011;43650;48.064;20.624;2022-11-15T01:19:40;11.88;;;6.68;;
57822;SDS011;43650;48.064;20.624;2022-11-15T01:20:41;14.23;;;7.27;;
57822;SDS011;43650;48.064;20.624;2022-11-15T01:21:42;21.83;;;11.05;;
57822;SDS011;43650;48.064;20.624;2022-11-15T01:22:42;26.20;;;11.97;;
57822;SDS011;43650;48.064;20.624;2022-11-15T01:23:42;25.13;;;12.03;;
57822;SDS011;43650;48.064;20.624;2022-11-15T01:24:43;15.40;;;8.13;;
57822;SDS011;43650;48.064;20.624;2022-11-15T01:25:43;9.57;;;5.90;;
57822;SDS011;43650;48.064;20.624;2022-11-15T01:26:44;10.43;;;5.67;;
57822;SDS011;43650;48.064;20.624;2022-11-15T01:27:44;13.47;;;7.90;;
57822;SDS011;43650;48.064;20.624;2022-11-15T01:28:44;12.47;;;6.97;;
57822;SDS011;43650;48.064;20.624;2022-11-15T01:29:45;11.53;;;6.20;;
57822;SDS011;43650;48.064;20.624;2022-11-15T01:30:45;10.27;;;4.77;;
57822;SDS011;43650;48.064;20.624;2022-11-15T01:31:46;7.90;;;4.07;;
57822;SDS011;43650;48.064;20.624;2022-11-15T01:32:46;6.67;;;3.17;;
57822;SDS011;43650;48.064;20.624;2022-11-15T01:33:47;6.53;;;3.77;;
57822;SDS011;43650;48.064;20.624;2022-11-15T01:34:47;5.53;;;3.12;;
57822;SDS011;43650;48.064;20.624;2022-11-15T01:35:48;11.40;;;7.20;;
57822;SDS011;43650;48.064;20.624;2022-11-15T01:36:48;14.80;;;8.27;;
57822;SDS011;43650;48.064;20.624;2022-11-15T01:37:48;19.60;;;10.87;;
57822;SDS011;43650;48.064;20.624;2022-11-15T01:38:53;26.30;;;14.50;;
57822;SDS011;43650;48.064;20.624;2022-11-15T01:39:55;15.75;;;9.30;;
57822;SDS011;43650;48.064;20.624;2022-11-15T01:40:55;16.17;;;9.00;;
57822;SDS011;43650;48.064;20.624;2022-11-15T01:41:55;17.93;;;7.33;;
57822;SDS011;43650;48.064;20.624;2022-11-15T01:42:56;9.07;;;5.93;;
57822;SDS011;43650;48.064;20.624;2022-11-15T01:43:57;9.33;;;5.67;;
57822;SDS011;43650;48.064;20.624;2022-11-15T01:45:35;8.00;;;4.15;;
57822;SDS011;43650;48.064;20.624;2022-11-15T01:46:35;9.23;;;4.70;;
57822;SDS011;43650;48.064;20.624;2022-11-15T01:47:43;6.55;;;3.80;;
57822;SDS011;43650;48.064;20.624;2022-11-15T01:48:46;6.72;;;4.07;;
57822;SDS011;43650;48.064;20.624;2022-11-15T01:50:51;7.35;;;4.50;;
57822;SDS011;43650;48.064;20.624;2022-11-15T01:51:52;5.43;;;2.75;;
57822;SDS011;43650;48.064;20.624;2022-11-15T01:52:53;5.82;;;3.58;;
57822;SDS011;43650;48.064;20.624;2022-11-15T01:53:54;6.27;;;3.57;;
57822;SDS011;43650;48.064;20.624;2022-11-15T01:54:59;8.88;;;4.18;;
57822;SDS011;43650;48.064;20.624;2022-11-15T01:56:24;4.75;;;2.95;;
57822;SDS011;43650;48.064;20.624;2022-11-15T01:57:26;7.28;;;3.85;;
57822;SDS011;43650;48.064;20.624;2022-11-15T01:58:27;6.33;;;3.30;;
57822;SDS011;43650;48.064;20.624;2022-11-15T01:59:27;7.13;;;3.70;;
57822;SDS011;43650;48.064;20.624;2022-11-15T02:00:29;6.40;;;4.03;;
57822;SDS011;43650;48.064;20.624;2022-11-15T02:01:30;6.03;;;3.92;;
57822;SDS011;43650;48.064;20.624;2022-11-15T02:02:31;25.12;;;10.23;;
57822;SDS011;43650;48.064;20.624;2022-11-15T02:04:41;45.53;;;18.00;;
57822;SDS011;43650;48.064;20.624;2022-11-15T02:05:43;50.60;;;20.37;;
57822;SDS011;43650;48.064;20.624;2022-11-15T02:06:44;60.55;;;26.62;;
57822;SDS011;43650;48.064;20.624;2022-11-15T02:07:45;79.87;;;32.50;;
57822;SDS011;43650;48.064;20.624;2022-11-15T02:08:46;62.60;;;27.80;;
57822;SDS011;43650;48.064;20.624;2022-11-15T02:09:47;58.03;;;25.58;;
57822;SDS011;43650;48.064;20.624;2022-11-15T02:10:47;46.93;;;19.80;;
57822;SDS011;43650;48.064;20.624;2022-11-15T02:11:48;42.60;;;19.17;;
57822;SDS011;43650;48.064;20.624;2022-11-15T02:12:50;42.70;;;16.92;;
57822;SDS011;43650;48.064;20.624;2022-11-15T02:13:51;31.70;;;15.68;;
57822;SDS011;43650;48.064;20.624;2022-11-15T02:14:52;24.77;;;13.53;;
57822;SDS011;43650;48.064;20.624;2022-11-15T02:18:23;18.42;;;9.55;;
57822;SDS011;43650;48.064;20.624;2022-11-15T02:21:42;7.10;;;4.05;;
57822;SDS011;43650;48.064;20.624;2022-11-15T02:27:57;14.68;;;6.87;;
57822;SDS011;43650;48.064;20.624;2022-11-15T02:29:35;15.73;;;7.45;;
57822;SDS011;43650;48.064;20.624;2022-11-15T02:32:30;12.32;;;6.78;;
57822;SDS011;43650;48.064;20.624;2022-11-15T02:34:56;13.13;;;6.32;;
57822;SDS011;43650;48.064;20.624;2022-11-15T02:36:18;15.07;;;5.28;;
57822;SDS011;43650;48.064;20.624;2022-11-15T02:37:43;11.00;;;4.90;;
57822;SDS011;43650;48.064;20.624;2022-11-15T02:39:21;6.97;;;4.43;;
57822;SDS011;43650;48.064;20.624;2022-11-15T02:42:57;6.87;;;3.45;;
57822;SDS011;43650;48.064;20.624;2022-11-15T02:45:35;6.25;;;3.40;;
57822;SDS011;43650;48.064;20.624;2022-11-15T02:46:41;5.55;;;3.42;;
57822;SDS011;43650;48.064;20.624;2022-11-15T02:48:04;7.10;;;3.05;;
57822;SDS011;43650;48.064;20.624;2022-11-15T02:50:07;9.02;;;3.72;;
57822;SDS011;43650;48.064;20.624;2022-11-15T02:51:09;7.57;;;3.85;;
57822;SDS011;43650;48.064;20.624;2022-11-15T02:52:14;7.30;;;4.50;;
57822;SDS011;43650;48.064;20.624;2022-11-15T02:53:15;7.60;;;3.95;;
57822;SDS011;43650;48.064;20.624;2022-11-15T02:54:23;8.80;;;4.40;;
57822;SDS011;43650;48.064;20.624;2022-11-15T02:55:32;7.82;;;4.57;;
57822;SDS011;43650;48.064;20.624;2022-11-15T02:56:39;7.43;;;3.85;;
57822;SDS011;43650;48.064;20.624;2022-11-15T02:57:52;7.62;;;4.00;;
57822;SDS011;43650;48.064;20.624;2022-11-15T02:59:07;10.38;;;4.05;;
57822;SDS011;43650;48.064;20.624;2022-11-15T03:00:14;6.90;;;4.18;;
57822;SDS011;43650;48.064;20.624;2022-11-15T03:07:44;6.70;;;3.03;;
57822;SDS011;43650;48.064;20.624;2022-11-15T03:09:02;4.35;;;3.05;;
57822;SDS011;43650;48.064;20.624;2022-11-15T03:10:09;4.57;;;2.65;;
57822;SDS011;43650;48.064;20.624;2022-11-15T03:11:17;5.40;;;2.58;;
57822;SDS011;43650;48.064;20.624;2022-11-15T03:12:30;3.72;;;2.42;;
57822;SDS011;43650;48.064;20.624;2022-11-15T03:13:40;5.82;;;2.90;;
57822;SDS011;43650;48.064;20.624;2022-11-15T03:14:53;5.40;;;3.17;;
57822;SDS011;43650;48.064;20.624;2022-11-15T03:16:44;4.57;;;3.25;;
57822;SDS011;43650;48.064;20.624;2022-11-15T03:17:27;4.50;;;2.33;;
57822;SDS011;43650;48.064;20.624;2022-11-15T03:18:33;6.07;;;2.53;;
57822;SDS011;43650;48.064;20.624;2022-11-15T03:20:53;4.65;;;2.37;;
57822;SDS011;43650;48.064;20.624;2022-11-15T03:21:54;6.12;;;2.75;;
57822;SDS011;43650;48.064;20.624;2022-11-15T03:23:58;4.95;;;2.67;;
57822;SDS011;43650;48.064;20.624;2022-11-15T03:25:04;5.20;;;2.70;;
57822;SDS011;43650;48.064;20.624;2022-11-15T03:26:09;5.75;;;2.53;;
57822;SDS011;43650;48.064;20.624;2022-11-15T03:27:12;7.35;;;2.62;;
57822;SDS011;43650;48.064;20.624;2022-11-15T03:28:20;5.43;;;2.42;;
57822;SDS011;43650;48.064;20.624;2022-11-15T03:29:24;9.40;;;3.72;;
57822;SDS011;43650;48.064;20.624;2022-11-15T03:30:27;14.05;;;3.00;;
57822;SDS011;43650;48.064;20.624;2022-11-15T03:31:31;5.68;;;2.62;;
57822;SDS011;43650;48.064;20.624;2022-11-15T03:32:54;7.95;;;3.12;;
57822;SDS011;43650;48.064;20.624;2022-11-15T03:33:57;6.15;;;3.03;;
57822;SDS011;43650;48.064;20.624;2022-11-15T03:34:58;5.05;;;2.80;;
57822;SDS011;43650;48.064;20.624;2022-11-15T03:36:01;5.18;;;2.35;;
57822;SDS011;43650;48.064;20.624;2022-11-15T03:37:01;4.10;;;2.43;;
57822;SDS011;43650;48.064;20.624;2022-11-15T03:38:14;4.97;;;2.70;;
57822;SDS011;43650;48.064;20.624;2022-11-15T03:39:21;4.70;;;2.58;;
57822;SDS011;43650;48.064;20.624;2022-11-15T03:40:24;5.50;;;2.65;;
57822;SDS011;43650;48.064;20.624;2022-11-15T03:41:30;5.82;;;2.90;;
57822;SDS011;43650;48.064;20.624;2022-11-15T03:42:48;5.40;;;2.95;;
57822;SDS011;43650;48.064;20.624;2022-11-15T03:43:57;4.40;;;2.70;;
57822;SDS011;43650;48.064;20.624;2022-11-15T03:45:16;4.80;;;2.40;;
57822;SDS011;43650;48.064;20.624;2022-11-15T03:46:23;5.62;;;3.17;;
57822;SDS011;43650;48.064;20.624;2022-11-15T03:48:36;5.57;;;2.50;;
57822;SDS011;43650;48.064;20.624;2022-11-15T03:49:41;6.10;;;2.53;;
57822;SDS011;43650;48.064;20.624;2022-11-15T03:50:44;5.30;;;2.37;;
57822;SDS011;43650;48.064;20.624;2022-11-15T03:51:45;4.30;;;2.40;;
57822;SDS011;43650;48.064;20.624;2022-11-15T03:52:46;5.57;;;2.80;;
57822;SDS011;43650;48.064;20.624;2022-11-15T03:54:52;4.62;;;2.37;;
57822;SDS011;43650;48.064;20.624;2022-11-15T03:55:53;6.05;;;3.40;;
57822;SDS011;43650;48.064;20.624;2022-11-15T03:56:54;12.00;;;3.43;;
57822;SDS011;43650;48.064;20.624;2022-11-15T03:57:55;7.30;;;4.03;;
57822;SDS011;43650;48.064;20.624;2022-11-15T03:58:58;9.38;;;3.95;;
57822;SDS011;43650;48.064;20.624;2022-11-15T03:59:59;8.90;;;3.90;;
57822;SDS011;43650;48.064;20.624;2022-11-15T04:00:59;6.70;;;3.53;;
57822;SDS011;43650;48.064;20.624;2022-11-15T04:02:00;11.07;;;4.43;;
57822;SDS011;43650;48.064;20.624;2022-11-15T04:03:00;7.33;;;3.87;;
57822;SDS011;43650;48.064;20.624;2022-11-15T04:04:00;8.63;;;3.73;;
57822;SDS011;43650;48.064;20.624;2022-11-15T04:05:01;10.50;;;3.33;;
57822;SDS011;43650;48.064;20.624;2022-11-15T04:06:01;7.87;;;3.17;;
57822;SDS011;43650;48.064;20.624;2022-11-15T04:07:01;7.90;;;4.37;;
57822;SDS011;43650;48.064;20.624;2022-11-15T04:08:03;7.33;;;3.70;;
57822;SDS011;43650;48.064;20.624;2022-11-15T04:09:04;5.80;;;3.12;;
57822;SDS011;43650;48.064;20.624;2022-11-15T04:10:04;9.00;;;4.00;;
57822;SDS011;43650;48.064;20.624;2022-11-15T04:11:05;9.80;;;3.53;;
57822;SDS011;43650;48.064;20.624;2022-11-15T04:12:06;8.33;;;2.90;;
57822;SDS011;43650;48.064;20.624;2022-11-15T04:13:06;6.73;;;3.10;;
57822;SDS011;43650;48.064;20.624;2022-11-15T04:14:07;5.40;;;3.10;;
57822;SDS011;43650;48.064;20.624;2022-11-15T04:15:08;5.90;;;2.90;;
57822;SDS011;43650;48.064;20.624;2022-11-15T04:16:12;5.72;;;3.03;;
57822;SDS011;43650;48.064;20.624;2022-11-15T04:17:13;5.67;;;2.67;;
57822;SDS011;43650;48.064;20.624;2022-11-15T04:18:13;4.43;;;2.77;;
57822;SDS011;43650;48.064;20.624;2022-11-15T04:19:14;4.37;;;2.57;;
57822;SDS011;43650;48.064;20.624;2022-11-15T04:20:52;4.85;;;2.12;;
57822;SDS011;43650;48.064;20.624;2022-11-15T04:22:12;4.95;;;2.50;;
57822;SDS011;43650;48.064;20.624;2022-11-15T04:23:30;5.32;;;2.33;;
57822;SDS011;43650;48.064;20.624;2022-11-15T04:24:49;5.18;;;2.37;;
57822;SDS011;43650;48.064;20.624;2022-11-15T04:25:50;3.77;;;1.83;;
57822;SDS011;43650;48.064;20.624;2022-11-15T04:26:52;3.47;;;2.55;;
57822;SDS011;43650;48.064;20.624;2022-11-15T04:27:52;5.60;;;2.77;;
57822;SDS011;43650;48.064;20.624;2022-11-15T04:28:53;5.60;;;2.93;;
57822;SDS011;43650;48.064;20.624;2022-11-15T04:30:12;8.93;;;3.50;;
57822;SDS011;43650;48.064;20.624;2022-11-15T04:31:12;6.43;;;3.27;;
57822;SDS011;43650;48.064;20.624;2022-11-15T04:32:12;7.63;;;3.60;;
57822;SDS011;43650;48.064;20.624;2022-11-15T04:33:13;10.40;;;4.40;;
57822;SDS011;43650;48.064;20.624;2022-11-15T04:34:14;6.70;;;3.83;;
57822;SDS011;43650;48.064;20.624;2022-11-15T04:35:14;7.50;;;3.57;;
57822;SDS011;43650;48.064;20.624;2022-11-15T04:36:15;9.93;;;5.33;;
57822;SDS011;43650;48.064;20.624;2022-11-15T04:37:34;18.08;;;7.53;;
57822;SDS011;43650;48.064;20.624;2022-11-15T04:38:34;21.83;;;9.37;;
57822;SDS011;43650;48.064;20.624;2022-11-15T04:39:35;14.35;;;8.23;;
57822;SDS011;43650;48.064;20.624;2022-11-15T04:40:36;17.13;;;7.73;;
57822;SDS011;43650;48.064;20.624;2022-11-15T04:41:37;17.23;;;7.80;;
57822;SDS011;43650;48.064;20.624;2022-11-15T04:42:39;13.57;;;7.30;;
57822;SDS011;43650;48.064;20.624;2022-11-15T04:43:41;9.48;;;5.07;;
57822;SDS011;43650;48.064;20.624;2022-11-15T04:44:42;10.27;;;5.37;;
57822;SDS011;43650;48.064;20.624;2022-11-15T04:45:42;9.80;;;5.07;;
57822;SDS011;43650;48.064;20.624;2022-11-15T04:46:42;11.97;;;6.07;;
57822;SDS011;43650;48.064;20.624;2022-11-15T04:47:43;18.50;;;6.10;;
57822;SDS011;43650;48.064;20.624;2022-11-15T04:48:45;11.43;;;5.40;;
57822;SDS011;43650;48.064;20.624;2022-11-15T04:49:45;14.23;;;6.30;;
57822;SDS011;43650;48.064;20.624;2022-11-15T04:50:47;17.07;;;7.23;;
57822;SDS011;43650;48.064;20.624;2022-11-15T04:51:48;14.57;;;6.90;;
57822;SDS011;43650;48.064;20.624;2022-11-15T04:52:52;17.20;;;8.80;;
57822;SDS011;43650;48.064;20.624;2022-11-15T04:53:53;21.02;;;11.55;;
57822;SDS011;43650;48.064;20.624;2022-11-15T04:54:54;23.83;;;12.30;;
57822;SDS011;43650;48.064;20.624;2022-11-15T04:55:54;35.53;;;16.50;;
57822;SDS011;43650;48.064;20.624;2022-11-15T04:56:55;47.93;;;22.87;;
57822;SDS011;43650;48.064;20.624;2022-11-15T04:58:01;35.73;;;18.63;;
57822;SDS011;43650;48.064;20.624;2022-11-15T04:59:02;55.67;;;27.60;;
57822;SDS011;43650;48.064;20.624;2022-11-15T05:00:04;99.93;;;46.57;;
57822;SDS011;43650;48.064;20.624;2022-11-15T05:01:09;97.12;;;48.50;;
57822;SDS011;43650;48.064;20.624;2022-11-15T05:02:10;48.85;;;24.83;;
57822;SDS011;43650;48.064;20.624;2022-11-15T05:03:11;51.47;;;24.00;;
57822;SDS011;43650;48.064;20.624;2022-11-15T05:04:30;48.97;;;23.00;;
57822;SDS011;43650;48.064;20.624;2022-11-15T05:05:30;69.33;;;34.73;;
57822;SDS011;43650;48.064;20.624;2022-11-15T05:06:30;74.60;;;38.67;;
57822;SDS011;43650;48.064;20.624;2022-11-15T05:07:31;73.72;;;37.90;;
57822;SDS011;43650;48.064;20.624;2022-11-15T05:08:31;63.80;;;33.70;;
57822;SDS011;43650;48.064;20.624;2022-11-15T05:09:32;55.42;;;32.08;;
57822;SDS011;43650;48.064;20.624;2022-11-15T05:10:32;44.13;;;24.23;;
57822;SDS011;43650;48.064;20.624;2022-11-15T05:11:33;47.60;;;25.45;;
57822;SDS011;43650;48.064;20.624;2022-11-15T05:12:34;48.95;;;26.75;;
57822;SDS011;43650;48.064;20.624;2022-11-15T05:13:34;46.77;;;22.80;;
57822;SDS011;43650;48.064;20.624;2022-11-15T05:14:35;40.30;;;20.17;;
57822;SDS011;43650;48.064;20.624;2022-11-15T05:15:35;30.20;;;16.17;;
57822;SDS011;43650;48.064;20.624;2022-11-15T05:16:36;31.67;;;16.10;;
57822;SDS011;43650;48.064;20.624;2022-11-15T05:17:36;37.35;;;19.50;;
57822;SDS011;43650;48.064;20.624;2022-11-15T05:18:37;31.43;;;15.93;;
57822;SDS011;43650;48.064;20.624;2022-11-15T05:19:40;27.42;;;15.57;;
57822;SDS011;43650;48.064;20.624;2022-11-15T05:20:41;24.47;;;15.10;;
57822;SDS011;43650;48.064;20.624;2022-11-15T05:21:41;27.83;;;13.77;;
57822;SDS011;43650;48.064;20.624;2022-11-15T05:22:41;21.30;;;12.73;;
57822;SDS011;43650;48.064;20.624;2022-11-15T05:23:42;25.00;;;12.97;;
57822;SDS011;43650;48.064;20.624;2022-11-15T05:24:42;22.87;;;12.97;;
57822;SDS011;43650;48.064;20.624;2022-11-15T05:25:43;22.40;;;13.20;;
57822;SDS011;43650;48.064;20.624;2022-11-15T05:26:43;21.10;;;12.57;;
57822;SDS011;43650;48.064;20.624;2022-11-15T05:27:43;26.43;;;14.13;;
57822;SDS011;43650;48.064;20.624;2022-11-15T05:28:44;26.40;;;13.20;;
57822;SDS011;43650;48.064;20.624;2022-11-15T05:29:44;26.97;;;14.13;;
57822;SDS011;43650;48.064;20.624;2022-11-15T05:30:45;25.63;;;14.83;;
57822;SDS011;43650;48.064;20.624;2022-11-15T05:31:45;32.67;;;15.20;;
57822;SDS011;43650;48.064;20.624;2022-11-15T05:32:46;30.07;;;13.83;;
57822;SDS011;43650;48.064;20.624;2022-11-15T05:33:48;29.73;;;14.85;;
57822;SDS011;43650;48.064;20.624;2022-11-15T05:35:50;21.73;;;10.48;;
57822;SDS011;43650;48.064;20.624;2022-11-15T05:36:56;18.05;;;9.07;;
57822;SDS011;43650;48.064;20.624;2022-11-15T05:37:56;16.23;;;8.30;;
57822;SDS011;43650;48.064;20.624;2022-11-15T05:38:57;13.37;;;8.40;;
57822;SDS011;43650;48.064;20.624;2022-11-15T05:39:57;15.03;;;9.70;;
57822;SDS011;43650;48.064;20.624;2022-11-15T05:40:59;19.20;;;12.23;;
57822;SDS011;43650;48.064;20.624;2022-11-15T05:42:07;21.77;;;12.63;;
57822;SDS011;43650;48.064;20.624;2022-11-15T05:43:09;18.95;;;10.82;;
57822;SDS011;43650;48.064;20.624;2022-11-15T05:44:11;16.57;;;11.03;;
57822;SDS011;43650;48.064;20.624;2022-11-15T05:45:13;12.80;;;8.45;;
57822;SDS011;43650;48.064;20.624;2022-11-15T05:46:14;19.10;;;8.98;;
57822;SDS011;43650;48.064;20.624;2022-11-15T05:47:21;13.60;;;9.07;;
57822;SDS011;43650;48.064;20.624;2022-11-15T05:48:24;14.63;;;8.88;;
57822;SDS011;43650;48.064;20.624;2022-11-15T05:49:25;15.00;;;9.03;;
57822;SDS011;43650;48.064;20.624;2022-11-15T05:50:28;17.70;;;10.07;;
57822;SDS011;43650;48.064;20.624;2022-11-15T05:51:29;25.97;;;12.03;;
57822;SDS011;43650;48.064;20.624;2022-11-15T05:52:30;30.58;;;16.48;;
57822;SDS011;43650;48.064;20.624;2022-11-15T05:53:31;45.50;;;22.92;;
57822;SDS011;43650;48.064;20.624;2022-11-15T05:54:32;50.87;;;22.40;;
57822;SDS011;43650;48.064;20.624;2022-11-15T05:55:33;40.03;;;21.90;;
57822;SDS011;43650;48.064;20.624;2022-11-15T05:56:34;41.40;;;24.07;;
57822;SDS011;43650;48.064;20.624;2022-11-15T05:57:34;44.73;;;22.40;;
57822;SDS011;43650;48.064;20.624;2022-11-15T05:58:35;43.77;;;21.63;;
57822;SDS011;43650;48.064;20.624;2022-11-15T05:59:36;36.10;;;16.42;;
57822;SDS011;43650;48.064;20.624;2022-11-15T06:00:37;33.42;;;14.43;;
57822;SDS011;43650;48.064;20.624;2022-11-15T06:01:37;22.37;;;11.53;;
57822;SDS011;43650;48.064;20.624;2022-11-15T06:02:38;20.67;;;11.20;;
57822;SDS011;43650;48.064;20.624;2022-11-15T06:03:39;19.93;;;10.77;;
57822;SDS011;43650;48.064;20.624;2022-11-15T06:04:39;17.17;;;9.47;;
57822;SDS011;43650;48.064;20.624;2022-11-15T06:05:40;14.87;;;7.87;;
57822;SDS011;43650;48.064;20.624;2022-11-15T06:06:40;18.67;;;9.00;;
57822;SDS011;43650;48.064;20.624;2022-11-15T06:07:41;18.80;;;7.40;;
57822;SDS011;43650;48.064;20.624;2022-11-15T06:08:41;14.63;;;8.40;;
57822;SDS011;43650;48.064;20.624;2022-11-15T06:09:41;13.43;;;7.63;;
57822;SDS011;43650;48.064;20.624;2022-11-15T06:10:42;15.93;;;8.13;;
57822;SDS011;43650;48.064;20.624;2022-11-15T06:11:42;14.07;;;7.93;;
57822;SDS011;43650;48.064;20.624;2022-11-15T06:12:43;18.40;;;9.70;;
57822;SDS011;43650;48.064;20.624;2022-11-15T06:13:43;15.87;;;9.90;;
57822;SDS011;43650;48.064;20.624;2022-11-15T06:14:43;21.37;;;11.63;;
57822;SDS011;43650;48.064;20.624;2022-11-15T06:15:44;29.63;;;14.73;;
57822;SDS011;43650;48.064;20.624;2022-11-15T06:16:44;29.60;;;16.40;;
57822;SDS011;43650;48.064;20.624;2022-11-15T06:17:44;31.60;;;15.57;;
57822;SDS011;43650;48.064;20.624;2022-11-15T06:18:45;32.57;;;16.80;;
57822;SDS011;43650;48.064;20.624;2022-11-15T06:19:45;35.47;;;18.07;;
57822;SDS011;43650;48.064;20.624;2022-11-15T06:20:46;27.37;;;15.60;;
57822;SDS011;43650;48.064;20.624;2022-11-15T06:21:46;35.10;;;17.70;;
57822;SDS011;43650;48.064;20.624;2022-11-15T06:22:47;33.67;;;17.80;;
57822;SDS011;43650;48.064;20.624;2022-11-15T06:23:47;32.23;;;17.53;;
57822;SDS011;43650;48.064;20.624;2022-11-15T06:24:47;34.23;;;17.63;;
57822;SDS011;43650;48.064;20.624;2022-11-15T06:25:48;29.35;;;16.20;;
57822;SDS011;43650;48.064;20.624;2022-11-15T06:26:49;31.00;;;15.93;;
57822;SDS011;43650;48.064;20.624;2022-11-15T06:27:52;28.00;;;14.93;;
57822;SDS011;43650;48.064;20.624;2022-11-15T06:28:53;31.83;;;14.77;;
57822;SDS011;43650;48.064;20.624;2022-11-15T06:29:54;28.23;;;15.83;;
57822;SDS011;43650;48.064;20.624;2022-11-15T06:30:54;29.77;;;15.37;;
57822;SDS011;43650;48.064;20.624;2022-11-15T06:31:54;32.73;;;15.83;;
57822;SDS011;43650;48.064;20.624;2022-11-15T06:32:59;35.70;;;18.13;;
57822;SDS011;43650;48.064;20.624;2022-11-15T06:34:02;31.83;;;18.08;;
57822;SDS011;43650;48.064;20.624;2022-11-15T06:35:03;32.40;;;17.53;;
57822;SDS011;43650;48.064;20.624;2022-11-15T06:36:04;39.03;;;19.77;;
57822;SDS011;43650;48.064;20.624;2022-11-15T06:37:06;50.05;;;23.42;;
57822;SDS011;43650;48.064;20.624;2022-11-15T06:38:08;56.87;;;24.90;;
57822;SDS011;43650;48.064;20.624;2022-11-15T06:39:09;61.20;;;24.35;;
57822;SDS011;43650;48.064;20.624;2022-11-15T06:40:10;50.87;;;23.43;;
57822;SDS011;43650;48.064;20.624;2022-11-15T06:41:11;48.33;;;22.33;;